Time;durP1;ratioP1;P1;durP2;ratioP2;P2;SDS_P1;SDS_P2;PMS_P1;PMS_P2;Temp;Humidity;BMP_temperature;BMP_pressure;BME280_temperature;BME280_humidity;BME280_pressure;Samples;Min_cycle;Max_cycle;Signal;HPM_P1;HPM_P2
2023/09/12 00:00:49;;;;;;;1999.90;999.90;;;16.10;86.80;;;;;;5030943;28;20037;-75
2023/09/12 00:03:20;;;;;;;1999.90;999.90;;;16.00;86.50;;;;;;5037158;28;20036;-75
2023/09/12 00:05:57;;;;;;;1999.90;999.90;;;16.10;86.90;;;;;;5039025;28;20079;-76
2023/09/12 00:08:23;;;;;;;1999.90;999.90;;;15.80;86.60;;;;;;5040172;28;20025;-75
2023/09/12 00:11:10;;;;;;;1999.90;999.90;;;16.00;87.30;;;;;;5039557;28;20483;-75
2023/09/12 00:13:37;;;;;;;1999.90;999.90;;;15.90;87.30;;;;;;5042344;28;20036;-75
2023/09/12 00:16:05;;;;;;;1999.90;999.90;;;15.90;87.30;;;;;;5039910;28;20029;-75
2023/09/12 00:18:31;;;;;;;1999.90;999.90;;;15.90;87.60;;;;;;5046829;28;20033;-75
2023/09/12 00:20:56;;;;;;;1999.90;999.90;;;15.90;87.80;;;;;;5037656;28;20033;-75
2023/09/12 00:23:23;;;;;;;1999.90;999.90;;;15.90;87.80;;;;;;5042922;28;20037;-74
2023/09/12 00:25:51;;;;;;;1999.90;999.90;;;16.00;87.50;;;;;;5040718;28;20380;-75
2023/09/12 00:28:17;;;;;;;1999.90;999.90;;;15.80;87.40;;;;;;5041734;28;20435;-74
2023/09/12 00:30:42;;;;;;;1999.90;999.90;;;15.80;88.20;;;;;;5041999;28;20046;-75
2023/09/12 00:33:08;;;;;;;1999.90;999.90;;;15.70;87.00;;;;;;5066490;28;20029;-75
2023/09/12 00:35:34;;;;;;;1999.90;999.90;;;15.70;87.40;;;;;;5039810;28;20048;-74
2023/09/12 00:37:59;;;;;;;1999.90;999.90;;;15.70;87.60;;;;;;5033265;28;20041;-74
2023/09/12 00:40:25;;;;;;;1999.90;999.90;;;15.70;87.50;;;;;;5042387;28;20108;-75
2023/09/12 00:42:51;;;;;;;1999.90;999.90;;;15.60;87.50;;;;;;5039007;28;20403;-74
2023/09/12 00:45:17;;;;;;;1999.90;999.90;;;15.60;88.20;;;;;;5045670;28;20033;-75
2023/09/12 00:47:43;;;;;;;1999.90;999.90;;;15.70;87.90;;;;;;5036632;28;20044;-75
2023/09/12 00:50:10;;;;;;;1999.90;999.90;;;15.50;88.30;;;;;;5042541;28;20033;-75
2023/09/12 00:52:38;;;;;;;1999.90;999.90;;;15.50;88.00;;;;;;5041489;28;20133;-75
2023/09/12 00:55:04;;;;;;;1999.90;999.90;;;15.60;88.00;;;;;;5039307;28;20084;-75
2023/09/12 00:57:32;;;;;;;1999.90;999.90;;;15.50;88.20;;;;;;5038013;28;20063;-75
2023/09/12 00:59:58;;;;;;;1999.90;999.90;;;15.30;89.60;;;;;;5038413;28;20033;-75
2023/09/12 01:02:24;;;;;;;1999.90;999.90;;;15.30;90.10;;;;;;5039759;28;20061;-75
2023/09/12 01:04:51;;;;;;;1999.90;999.90;;;15.30;90.00;;;;;;5037563;28;20050;-74
2023/09/12 01:07:16;;;;;;;1999.90;999.90;;;15.30;89.60;;;;;;5038768;28;20101;-75
2023/09/12 01:09:42;;;;;;;1999.90;999.90;;;15.30;89.60;;;;;;5037333;28;20056;-75
2023/09/12 01:12:08;;;;;;;1999.90;999.90;;;15.30;89.20;;;;;;5041363;28;20037;-75
2023/09/12 01:14:34;;;;;;;1999.90;999.90;;;15.20;89.50;;;;;;5037812;28;20525;-74
2023/09/12 01:17:03;;;;;;;1999.90;999.90;;;15.10;90.10;;;;;;5039620;28;20376;-75
2023/09/12 01:19:29;;;;;;;1999.90;999.90;;;15.10;90.40;;;;;;5034083;28;20117;-75
2023/09/12 01:22:10;;;;;;;1999.90;999.90;;;15.10;90.50;;;;;;5040120;28;20135;-75
2023/09/12 01:25:20;;;;;;;1999.90;999.90;;;15.10;90.60;;;;;;5034393;28;20847;-77
2023/09/12 01:27:51;;;;;;;1999.90;999.90;;;15.10;90.60;;;;;;5037071;28;20053;-76
2023/09/12 01:30:20;;;;;;;1999.90;999.90;;;15.10;90.40;;;;;;5034084;28;20037;-75
2023/09/12 01:32:46;;;;;;;1999.90;999.90;;;15.10;90.30;;;;;;5036326;28;20041;-77
2023/09/12 01:35:12;;;;;;;1999.90;999.90;;;15.00;90.10;;;;;;5042578;28;20145;-77
2023/09/12 01:37:38;;;;;;;1999.90;999.90;;;15.10;90.30;;;;;;5041457;28;20033;-77
2023/09/12 01:40:05;;;;;;;1999.90;999.90;;;15.10;90.20;;;;;;5037919;28;20395;-77
2023/09/12 01:42:37;;;;;;;1999.90;999.90;;;15.00;89.90;;;;;;5037924;28;20509;-77
2023/09/12 01:45:04;;;;;;;1999.90;999.90;;;15.00;90.10;;;;;;5038534;28;20025;-76
2023/09/12 01:47:30;;;;;;;1999.90;999.90;;;14.80;89.60;;;;;;5039167;28;20061;-77
2023/09/12 01:49:58;;;;;;;1999.90;999.90;;;14.80;90.00;;;;;;5037255;28;20025;-77
2023/09/12 01:52:26;;;;;;;1999.90;999.90;;;14.80;90.30;;;;;;5037116;28;20108;-77
2023/09/12 01:54:52;;;;;;;1999.90;999.90;;;14.80;90.30;;;;;;5038230;28;20028;-77
2023/09/12 01:57:22;;;;;;;1999.90;999.90;;;14.80;90.30;;;;;;5040507;28;20136;-77
2023/09/12 01:59:49;;;;;;;1999.90;999.90;;;14.70;90.40;;;;;;5033213;28;20025;-77
2023/09/12 02:02:17;;;;;;;1999.90;999.90;;;14.70;90.40;;;;;;5036249;28;20021;-77
2023/09/12 02:05:05;;;;;;;1999.90;999.90;;;14.70;90.50;;;;;;5035442;28;20431;-77
2023/09/12 02:07:34;;;;;;;1999.90;999.90;;;14.60;90.70;;;;;;5036676;28;20029;-77
2023/09/12 02:10:00;;;;;;;1999.90;999.90;;;14.80;91.00;;;;;;5040610;28;20442;-77
2023/09/12 02:12:26;;;;;;;1999.90;999.90;;;14.80;91.20;;;;;;5042716;28;20029;-76
2023/09/12 02:14:51;;;;;;;1999.90;999.90;;;14.90;91.30;;;;;;5032513;28;20388;-76
2023/09/12 02:17:17;;;;;;;1999.90;999.90;;;15.00;91.40;;;;;;5042294;28;20404;-77
2023/09/12 02:19:43;;;;;;;1999.90;999.90;;;15.00;91.40;;;;;;5035851;28;20041;-77
2023/09/12 02:22:08;;;;;;;1999.90;999.90;;;15.00;91.40;;;;;;5036746;28;20068;-76
2023/09/12 02:24:39;;;;;;;1999.90;999.90;;;15.00;91.40;;;;;;5041097;28;20554;-76
2023/09/12 02:27:05;;;;;;;1999.90;999.90;;;15.10;91.30;;;;;;5022748;28;20056;-76
2023/09/12 02:29:32;;;;;;;1999.90;999.90;;;15.10;91.30;;;;;;5039985;28;20083;-77
2023/09/12 02:31:58;;;;;;;1999.90;999.90;;;15.10;91.70;;;;;;5037372;28;20040;-78
2023/09/12 02:34:24;;;;;;;1999.90;999.90;;;15.10;91.40;;;;;;5040232;28;20029;-77
2023/09/12 02:36:49;;;;;;;1999.90;999.90;;;15.10;91.50;;;;;;5041160;28;20086;-76
2023/09/12 02:39:15;;;;;;;1999.90;999.90;;;15.10;91.50;;;;;;5040126;28;20204;-76
2023/09/12 02:41:41;;;;;;;1999.90;999.90;;;15.10;91.50;;;;;;5037108;28;20399;-77
2023/09/12 02:44:06;;;;;;;1999.90;999.90;;;15.00;91.40;;;;;;5040406;28;20399;-76
2023/09/12 02:46:33;;;;;;;1999.90;999.90;;;15.00;91.50;;;;;;5042403;28;20579;-77
2023/09/12 02:48:58;;;;;;;1999.90;999.90;;;15.00;91.50;;;;;;5039821;28;20029;-77
2023/09/12 02:51:26;;;;;;;1999.90;999.90;;;15.10;91.50;;;;;;5042293;28;20079;-78
2023/09/12 02:53:51;;;;;;;1999.90;999.90;;;15.00;91.30;;;;;;5036870;28;20498;-77
2023/09/12 02:56:17;;;;;;;1999.90;999.90;;;15.00;91.30;;;;;;5032709;28;20037;-76
2023/09/12 02:58:46;;;;;;;1999.90;999.90;;;14.90;91.30;;;;;;5037088;28;20104;-77
2023/09/12 03:01:19;;;;;;;1999.90;999.90;;;15.00;91.50;;;;;;5040163;28;20045;-76
2023/09/12 03:03:48;;;;;;;1999.90;999.90;;;14.90;91.60;;;;;;5041536;28;20033;-76
2023/09/12 03:06:14;;;;;;;1999.90;999.90;;;14.90;91.70;;;;;;5035148;28;20053;-78
2023/09/12 03:08:41;;;;;;;1999.90;999.90;;;14.90;91.80;;;;;;5039574;28;20079;-76
2023/09/12 03:11:07;;;;;;;1999.90;999.90;;;14.90;92.20;;;;;;5041072;28;20033;-77
2023/09/12 03:13:34;;;;;;;1999.90;999.90;;;15.00;92.10;;;;;;5043100;28;20036;-76
2023/09/12 03:16:00;;;;;;;1999.90;999.90;;;14.90;92.00;;;;;;5035562;28;20024;-77
2023/09/12 03:18:26;;;;;;;1999.90;999.90;;;14.90;92.00;;;;;;5036712;28;20136;-76
2023/09/12 03:20:51;;;;;;;1999.90;999.90;;;14.90;92.10;;;;;;5035414;28;20519;-76
2023/09/12 03:23:17;;;;;;;1999.90;999.90;;;14.90;92.10;;;;;;5033846;28;20021;-77
2023/09/12 03:25:42;;;;;;;1999.90;999.90;;;14.90;92.10;;;;;;5038688;28;20451;-77
2023/09/12 03:28:08;;;;;;;1999.90;999.90;;;14.90;92.20;;;;;;5038949;28;20073;-77
2023/09/12 03:30:36;;;;;;;1999.90;999.90;;;14.90;92.20;;;;;;5036601;28;20121;-76
2023/09/12 03:33:03;;;;;;;1999.90;999.90;;;14.90;92.30;;;;;;5041644;28;20098;-77
2023/09/12 03:35:29;;;;;;;1999.90;999.90;;;14.90;92.30;;;;;;5035273;28;20030;-76
2023/09/12 03:37:55;;;;;;;1999.90;999.90;;;14.80;92.30;;;;;;5041716;28;20083;-76
2023/09/12 03:40:21;;;;;;;1999.90;999.90;;;14.80;92.30;;;;;;5041300;28;20025;-76
2023/09/12 03:42:46;;;;;;;1999.90;999.90;;;14.60;92.30;;;;;;5041474;28;20582;-76
2023/09/12 03:45:12;;;;;;;1999.90;999.90;;;14.60;92.30;;;;;;5035408;28;20034;-77
2023/09/12 03:47:38;;;;;;;1999.90;999.90;;;14.60;92.40;;;;;;5039636;28;20548;-76
2023/09/12 03:50:04;;;;;;;1999.90;999.90;;;14.60;92.50;;;;;;5044702;28;20403;-77
2023/09/12 03:52:30;;;;;;;1999.90;999.90;;;14.60;92.40;;;;;;5041343;28;20115;-76
2023/09/12 03:54:55;;;;;;;1999.90;999.90;;;14.60;92.30;;;;;;5038707;28;20543;-77
2023/09/12 03:57:22;;;;;;;1999.90;999.90;;;14.50;92.20;;;;;;5034558;28;20069;-77
2023/09/12 03:59:47;;;;;;;1999.90;999.90;;;14.50;92.30;;;;;;5041683;28;20032;-77
2023/09/12 04:02:13;;;;;;;1999.90;999.90;;;14.40;92.10;;;;;;5039865;28;20029;-76
2023/09/12 04:04:39;;;;;;;1999.90;999.90;;;14.40;92.00;;;;;;5041937;28;20448;-76
2023/09/12 04:07:05;;;;;;;1999.90;999.90;;;14.30;92.00;;;;;;5035943;28;20044;-76
2023/09/12 04:09:31;;;;;;;1999.90;999.90;;;14.40;92.00;;;;;;5036247;28;20057;-77
2023/09/12 04:11:57;;;;;;;1999.90;999.90;;;14.30;92.10;;;;;;5037748;28;20060;-77
2023/09/12 04:14:22;;;;;;;1999.90;999.90;;;14.30;92.20;;;;;;5033777;28;20109;-77
2023/09/12 04:16:48;;;;;;;1999.90;999.90;;;14.30;92.10;;;;;;5035949;28;20121;-76
2023/09/12 04:19:14;;;;;;;1999.90;999.90;;;14.30;92.20;;;;;;5031575;28;20470;-72
2023/09/12 04:21:40;;;;;;;1999.90;999.90;;;14.30;92.20;;;;;;5041294;28;20299;-71
2023/09/12 04:24:06;;;;;;;1999.90;999.90;;;14.30;92.30;;;;;;5040891;28;20515;-71
2023/09/12 04:26:32;;;;;;;1999.90;999.90;;;14.40;92.30;;;;;;5036440;28;20063;-71
2023/09/12 04:28:58;;;;;;;1999.90;999.90;;;14.40;92.30;;;;;;5041431;28;20065;-72
2023/09/12 04:31:24;;;;;;;1999.90;999.90;;;14.40;92.30;;;;;;5036235;28;20500;-72
2023/09/12 04:33:53;;;;;;;1999.90;999.90;;;14.40;92.20;;;;;;5041383;28;20569;-72
2023/09/12 04:36:20;;;;;;;1999.90;999.90;;;14.40;92.20;;;;;;5032554;28;20030;-71
2023/09/12 04:38:46;;;;;;;1999.90;999.90;;;14.40;92.20;;;;;;5032456;28;20501;-71
2023/09/12 04:41:16;;;;;;;1999.90;999.90;;;14.30;92.20;;;;;;5031815;28;20033;-73
2023/09/12 04:43:44;;;;;;;1999.90;999.90;;;14.20;92.10;;;;;;5038654;28;20664;-82
2023/09/12 04:46:11;;;;;;;1999.90;999.90;;;14.20;92.10;;;;;;5031154;28;20099;-79
2023/09/12 04:48:37;;;;;;;1999.90;999.90;;;14.20;92.20;;;;;;5033114;28;20037;-78
2023/09/12 04:51:03;;;;;;;1999.90;999.90;;;14.20;92.20;;;;;;5035161;28;20128;-79
2023/09/12 04:53:34;;;;;;;1999.90;999.90;;;14.20;92.30;;;;;;5040421;28;20104;-79
2023/09/12 04:56:03;;;;;;;1999.90;999.90;;;14.30;92.40;;;;;;5036722;28;20274;-79
2023/09/12 04:58:29;;;;;;;1999.90;999.90;;;14.30;92.30;;;;;;5048396;28;20484;-78
2023/09/12 05:00:55;;;;;;;1999.90;999.90;;;14.20;92.30;;;;;;5035662;28;20041;-78
2023/09/12 05:03:22;;;;;;;1999.90;999.90;;;14.20;92.30;;;;;;5040846;28;20036;-80
2023/09/12 05:05:48;;;;;;;1999.90;999.90;;;14.20;92.30;;;;;;5016075;28;20034;-79
2023/09/12 05:08:14;;;;;;;1999.90;999.90;;;14.20;92.30;;;;;;5058932;28;20121;-80
2023/09/12 05:10:39;;;;;;;1999.90;999.90;;;14.20;92.40;;;;;;5040082;28;20112;-78
2023/09/12 05:13:06;;;;;;;1999.90;999.90;;;14.20;92.30;;;;;;5037987;28;20592;-80
2023/09/12 05:15:31;;;;;;;1999.90;999.90;;;14.20;92.20;;;;;;5037046;28;20025;-79
2023/09/12 05:17:57;;;;;;;1999.90;999.90;;;14.20;92.00;;;;;;5032510;28;20380;-81
2023/09/12 05:20:23;;;;;;;1999.90;999.90;;;14.20;91.80;;;;;;5031956;28;20769;-79
2023/09/12 05:22:48;;;;;;;1999.90;999.90;;;14.20;91.80;;;;;;5017993;28;20092;-78
2023/09/12 05:25:14;;;;;;;1999.90;999.90;;;14.30;91.90;;;;;;5035756;28;20033;-79
2023/09/12 05:27:40;;;;;;;1999.90;999.90;;;14.30;91.70;;;;;;5034754;28;20033;-76
2023/09/12 05:30:06;;;;;;;1999.90;999.90;;;14.40;91.90;;;;;;5039259;28;20040;-77
2023/09/12 05:32:32;;;;;;;1999.90;999.90;;;14.40;91.90;;;;;;5039880;28;20064;-77
2023/09/12 05:34:57;;;;;;;1999.90;999.90;;;14.40;91.80;;;;;;5033188;28;20676;-77
2023/09/12 05:37:23;;;;;;;1999.90;999.90;;;14.50;91.80;;;;;;5041060;28;20736;-78
2023/09/12 05:39:48;;;;;;;1999.90;999.90;;;14.60;91.90;;;;;;5037258;28;20022;-78
2023/09/12 05:42:20;;;;;;;1999.90;999.90;;;14.70;91.90;;;;;;5035875;28;20033;-78
2023/09/12 05:44:48;;;;;;;1999.90;999.90;;;14.80;91.80;;;;;;5033193;28;20036;-83
2023/09/12 05:47:14;;;;;;;1999.90;999.90;;;14.80;91.70;;;;;;5020944;28;20029;-84
2023/09/12 05:49:40;;;;;;;1999.90;999.90;;;14.90;91.60;;;;;;5036258;28;20182;-84
2023/09/12 05:52:07;;;;;;;1999.90;999.90;;;14.90;91.40;;;;;;5035693;28;20124;-82
2023/09/12 05:54:33;;;;;;;1999.90;999.90;;;14.90;91.40;;;;;;5032716;28;20118;-82
2023/09/12 05:56:58;;;;;;;1999.90;999.90;;;14.90;91.30;;;;;;5035730;28;20523;-82
2023/09/12 05:59:24;;;;;;;1999.90;999.90;;;15.00;91.40;;;;;;5030704;28;20440;-82
2023/09/12 06:01:50;;;;;;;1999.90;999.90;;;15.10;91.40;;;;;;5034683;28;20084;-84
2023/09/12 06:04:15;;;;;;;1999.90;999.90;;;15.10;91.40;;;;;;5035378;28;20112;-84
2023/09/12 06:06:41;;;;;;;1999.90;999.90;;;15.30;91.40;;;;;;5039454;28;20040;-85
2023/09/12 06:09:08;;;;;;;1999.90;999.90;;;15.40;91.30;;;;;;5034777;28;20045;-84
2023/09/12 06:11:34;;;;;;;1999.90;999.90;;;15.50;91.10;;;;;;5033683;28;20120;-85
2023/09/12 06:14:01;;;;;;;1999.90;999.90;;;15.60;90.90;;;;;;5037068;28;20365;-84
2023/09/12 06:16:27;;;;;;;1999.90;999.90;;;15.80;90.80;;;;;;5038154;28;20220;-84
2023/09/12 06:18:53;;;;;;;1999.90;999.90;;;15.80;90.80;;;;;;5033516;28;20044;-85
2023/09/12 06:21:21;;;;;;;1999.90;999.90;;;16.00;90.90;;;;;;5036105;28;20075;-85
2023/09/12 06:24:07;;;;;;;1999.90;999.90;;;16.10;90.50;;;;;;5035710;28;20041;-86
2023/09/12 06:26:32;;;;;;;1999.90;999.90;;;16.20;90.40;;;;;;5038372;28;20593;-84
2023/09/12 06:28:59;;;;;;;1999.90;999.90;;;16.30;90.20;;;;;;5035110;28;20061;-85
2023/09/12 06:31:24;;;;;;;1999.90;999.90;;;16.50;89.90;;;;;;5037726;28;20048;-83
2023/09/12 06:33:50;;;;;;;1999.90;999.90;;;16.60;89.40;;;;;;5041484;28;20037;-84
2023/09/12 06:36:16;;;;;;;1999.90;999.90;;;16.70;88.80;;;;;;5039841;28;20373;-83
2023/09/12 06:38:41;;;;;;;1999.90;999.90;;;16.90;88.20;;;;;;5000960;28;20029;-81
2023/09/12 06:41:07;;;;;;;1999.90;999.90;;;17.10;87.90;;;;;;5031197;28;20037;-83
2023/09/12 06:43:35;;;;;;;1999.90;999.90;;;17.20;87.50;;;;;;5029741;28;20052;-85
2023/09/12 06:46:01;;;;;;;1999.90;999.90;;;17.30;86.80;;;;;;5036749;28;20136;-84
2023/09/12 06:48:26;;;;;;;1999.90;999.90;;;17.40;86.30;;;;;;5031582;28;20151;-84
2023/09/12 06:50:54;;;;;;;1999.90;999.90;;;17.60;85.90;;;;;;5036141;28;20511;-84
2023/09/12 06:53:19;;;;;;;1999.90;999.90;;;17.70;85.40;;;;;;5038290;28;20113;-84
2023/09/12 06:55:45;;;;;;;1999.90;999.90;;;17.90;85.30;;;;;;5018022;28;20150;-82
2023/09/12 06:58:11;;;;;;;1999.90;999.90;;;18.00;84.20;;;;;;5038393;28;20078;-82
2023/09/12 07:00:36;;;;;;;1999.90;999.90;;;18.10;84.30;;;;;;5034144;28;20033;-82
2023/09/12 07:03:02;;;;;;;1999.90;999.90;;;18.20;84.30;;;;;;5040142;28;20041;-82
2023/09/12 07:05:28;;;;;;;1999.90;999.90;;;18.40;84.00;;;;;;5038056;28;20032;-82
2023/09/12 07:07:54;;;;;;;1999.90;999.90;;;18.40;83.50;;;;;;5040826;28;20120;-84
2023/09/12 07:10:19;;;;;;;1999.90;999.90;;;18.60;83.20;;;;;;5035404;28;20037;-81
2023/09/12 07:12:45;;;;;;;1999.90;999.90;;;18.60;82.60;;;;;;5044099;28;20123;-82
2023/09/12 07:15:12;;;;;;;1999.90;999.90;;;18.70;83.20;;;;;;5036925;28;20025;-82
2023/09/12 07:17:38;;;;;;;1999.90;999.90;;;18.80;82.90;;;;;;5038174;28;20163;-84
2023/09/12 07:20:05;;;;;;;1999.90;999.90;;;19.00;83.40;;;;;;5028270;28;20120;-82
2023/09/12 07:22:30;;;;;;;1999.90;999.90;;;19.10;82.70;;;;;;5039841;28;20037;-82
2023/09/12 07:25:00;;;;;;;1999.90;999.90;;;19.20;82.20;;;;;;5041007;28;20032;-83
2023/09/12 07:27:27;;;;;;;1999.90;999.90;;;19.40;82.10;;;;;;5042331;28;20048;-83
2023/09/12 07:29:53;;;;;;;1999.90;999.90;;;19.50;81.30;;;;;;5044040;28;20064;-83
2023/09/12 07:32:19;;;;;;;1999.90;999.90;;;19.70;81.40;;;;;;5043205;28;20395;-82
2023/09/12 07:34:48;;;;;;;1999.90;999.90;;;19.80;80.50;;;;;;5042213;28;20033;-84
2023/09/12 07:37:14;;;;;;;1999.90;999.90;;;20.00;80.00;;;;;;5018178;28;20033;-84
2023/09/12 07:39:39;;;;;;;1999.90;999.90;;;20.10;79.60;;;;;;5034242;28;20034;-79
2023/09/12 07:42:05;;;;;;;1999.90;999.90;;;20.10;79.20;;;;;;5039628;28;20044;-79
2023/09/12 07:44:31;;;;;;;1999.90;999.90;;;20.20;79.20;;;;;;5042162;28;20026;-79
2023/09/12 07:46:57;;;;;;;1999.90;999.90;;;20.50;79.10;;;;;;5036927;28;20037;-79
2023/09/12 07:49:24;;;;;;;1999.90;999.90;;;20.60;78.00;;;;;;5045503;28;20427;-79
2023/09/12 07:51:50;;;;;;;1999.90;999.90;;;20.80;77.50;;;;;;5036952;28;20464;-79
2023/09/12 07:54:17;;;;;;;1999.90;999.90;;;20.70;77.10;;;;;;5036477;28;20115;-79
2023/09/12 07:56:43;;;;;;;1999.90;999.90;;;20.70;76.10;;;;;;5029854;28;20030;-78
2023/09/12 07:59:10;;;;;;;1999.90;999.90;;;20.70;76.10;;;;;;5035832;28;20524;-78
2023/09/12 08:01:36;;;;;;;1999.90;999.90;;;20.80;75.20;;;;;;5021309;28;20044;-78
2023/09/12 08:04:02;;;;;;;1999.90;999.90;;;21.00;75.70;;;;;;5040829;28;20029;-78
2023/09/12 08:06:28;;;;;;;1999.90;999.90;;;21.10;75.40;;;;;;5039543;28;20036;-77
2023/09/12 08:08:53;;;;;;;1999.90;999.90;;;21.10;75.40;;;;;;5035874;28;20622;-78
2023/09/12 08:11:19;;;;;;;1999.90;999.90;;;21.40;77.00;;;;;;5023685;28;20040;-79
2023/09/12 08:13:50;;;;;;;1999.90;999.90;;;21.50;74.50;;;;;;5039032;28;20038;-78
2023/09/12 08:16:16;;;;;;;1999.90;999.90;;;21.50;73.30;;;;;;5038828;28;20032;-78
2023/09/12 08:18:42;;;;;;;1999.90;999.90;;;21.70;73.10;;;;;;5042736;28;20033;-79
2023/09/12 08:21:08;;;;;;;1999.90;999.90;;;21.80;73.60;;;;;;5036630;28;20040;-78
2023/09/12 08:23:34;;;;;;;1999.90;999.90;;;21.70;72.80;;;;;;5041621;28;20406;-79
2023/09/12 08:26:00;;;;;;;1999.90;999.90;;;21.90;73.10;;;;;;5035477;28;20116;-79
2023/09/12 08:28:25;;;;;;;1999.90;999.90;;;22.00;72.00;;;;;;5039904;28;20175;-78
2023/09/12 08:30:51;;;;;;;1999.90;999.90;;;22.20;72.90;;;;;;5034783;28;20041;-78
2023/09/12 08:33:17;;;;;;;1999.90;999.90;;;22.30;71.50;;;;;;5038757;28;20807;-79
2023/09/12 08:35:43;;;;;;;1999.90;999.90;;;22.30;70.10;;;;;;5036697;28;20116;-78
2023/09/12 08:38:09;;;;;;;1999.90;999.90;;;22.60;71.00;;;;;;5037998;28;20032;-78
2023/09/12 08:40:35;;;;;;;1999.90;999.90;;;22.50;70.70;;;;;;5038553;28;20030;-79
2023/09/12 08:43:03;;;;;;;1999.90;999.90;;;22.50;68.80;;;;;;5039167;28;20040;-79
2023/09/12 08:45:29;;;;;;;1999.90;999.90;;;22.60;68.10;;;;;;5022851;28;20086;-79
2023/09/12 08:47:58;;;;;;;1999.90;999.90;;;22.90;67.80;;;;;;5039701;28;20041;-79
2023/09/12 08:50:24;;;;;;;1999.90;999.90;;;23.00;67.80;;;;;;5040250;28;20026;-78
2023/09/12 08:52:50;;;;;;;1999.90;999.90;;;23.10;67.00;;;;;;5040410;28;20056;-79
2023/09/12 08:55:17;;;;;;;1999.90;999.90;;;23.10;67.10;;;;;;5041882;28;20540;-78
2023/09/12 08:57:44;;;;;;;1999.90;999.90;;;23.10;68.40;;;;;;5008843;28;20033;-75
2023/09/12 09:00:14;;;;;;;1999.90;999.90;;;23.30;67.00;;;;;;5035871;28;20564;-78
2023/09/12 09:02:40;;;;;;;1999.90;999.90;;;23.40;66.50;;;;;;5034078;28;20033;-79
2023/09/12 09:05:08;;;;;;;1999.90;999.90;;;23.70;66.90;;;;;;5020672;28;20087;-78
2023/09/12 09:07:39;;;;;;;1999.90;999.90;;;23.60;68.20;;;;;;5040406;28;20518;-78
2023/09/12 09:10:08;;;;;;;1999.90;999.90;;;23.90;68.10;;;;;;5020324;28;20050;-78
2023/09/12 09:12:35;;;;;;;1999.90;999.90;;;24.00;65.70;;;;;;5039100;28;20074;-78
2023/09/12 09:15:20;;;;;;;1999.90;999.90;;;24.00;65.30;;;;;;5033645;28;20364;-78
2023/09/12 09:17:46;;;;;;;1999.90;999.90;;;23.90;65.20;;;;;;5040498;28;20021;-78
2023/09/12 09:20:25;;;;;;;1999.90;999.90;;;24.00;65.40;;;;;;5041974;28;20111;-78
2023/09/12 09:23:05;;;;;;;1999.90;999.90;;;24.40;64.60;;;;;;5038512;28;20033;-79
2023/09/12 09:25:32;;;;;;;1999.90;999.90;;;24.60;63.10;;;;;;5035589;28;20029;-79
2023/09/12 09:27:58;;;;;;;1999.90;999.90;;;24.80;63.90;;;;;;5035736;28;20119;-78
2023/09/12 09:30:39;;;;;;;1999.90;999.90;;;25.20;63.30;;;;;;5036351;28;20748;-78
2023/09/12 09:33:05;;;;;;;1999.90;999.90;;;25.00;63.10;;;;;;5034737;28;20049;-81
2023/09/12 09:35:31;;;;;;;1999.90;999.90;;;25.10;64.50;;;;;;5035860;28;20565;-81
2023/09/12 09:37:57;;;;;;;1999.90;999.90;;;25.30;62.90;;;;;;5031619;28;20037;-81
2023/09/12 09:40:23;;;;;;;1999.90;999.90;;;25.20;63.80;;;;;;5039083;28;20025;-80
2023/09/12 09:42:54;;;;;;;1999.90;999.90;;;25.30;63.10;;;;;;5073291;28;20033;-78
2023/09/12 09:45:19;;;;;;;1999.90;999.90;;;25.40;60.50;;;;;;5036534;28;20033;-81
2023/09/12 09:47:45;;;;;;;1999.90;999.90;;;25.50;63.70;;;;;;5035650;28;20037;-81
2023/09/12 09:50:15;;;;;;;1999.90;999.90;;;25.60;63.10;;;;;;5036892;28;20045;-82
2023/09/12 09:52:43;;;;;;;1999.90;999.90;;;25.80;60.00;;;;;;5032714;28;20818;-81
2023/09/12 09:55:14;;;;;;;1999.90;999.90;;;25.70;58.10;;;;;;5038592;28;20025;-81
2023/09/12 09:57:40;;;;;;;1999.90;999.90;;;25.80;60.40;;;;;;5022238;28;20459;-82
2023/09/12 10:00:08;;;;;;;1999.90;999.90;;;26.00;56.50;;;;;;5019428;28;20033;-81
2023/09/12 10:02:36;;;;;;;1999.90;999.90;;;26.10;55.70;;;;;;5031961;28;20414;-81
2023/09/12 10:05:05;;;;;;;1999.90;999.90;;;26.40;56.10;;;;;;5037069;28;20465;-80
2023/09/12 10:07:36;;;;;;;1999.90;999.90;;;26.60;57.70;;;;;;5041287;28;20055;-81
2023/09/12 10:10:03;;;;;;;1999.90;999.90;;;26.60;53.60;;;;;;5034593;28;20639;-80
2023/09/12 10:12:31;;;;;;;1999.90;999.90;;;26.70;51.80;;;;;;5039563;28;20045;-81
2023/09/12 10:15:01;;;;;;;1999.90;999.90;;;26.70;52.80;;;;;;5042576;28;20487;-81
2023/09/12 10:17:34;;;;;;;1999.90;999.90;;;26.80;56.30;;;;;;5034998;28;20483;-81
2023/09/12 10:20:09;;;;;;;1999.90;999.90;;;27.20;53.00;;;;;;5033497;28;20033;-81
2023/09/12 10:22:41;;;;;;;1999.90;999.90;;;26.80;50.30;;;;;;5032529;28;20857;-80
2023/09/12 10:25:08;;;;;;;1999.90;999.90;;;27.20;54.20;;;;;;5061138;28;20057;-81
2023/09/12 10:27:34;;;;;;;1999.90;999.90;;;27.20;54.60;;;;;;5033412;28;20037;-81
2023/09/12 10:30:02;;;;;;;1999.90;999.90;;;27.40;50.30;;;;;;5036077;28;20084;-81
2023/09/12 10:32:30;;;;;;;1999.90;999.90;;;27.70;49.40;;;;;;5034770;28;20505;-80
2023/09/12 10:34:58;;;;;;;1999.90;999.90;;;27.70;50.90;;;;;;5032252;28;20029;-81
2023/09/12 10:37:26;;;;;;;1999.90;999.90;;;27.80;49.30;;;;;;5036074;28;20140;-81
2023/09/12 10:39:57;;;;;;;1999.90;999.90;;;28.00;48.20;;;;;;5034948;28;20029;-83
2023/09/12 10:42:25;;;;;;;1999.90;999.90;;;27.90;49.10;;;;;;5036766;28;20535;-81
2023/09/12 10:44:54;;;;;;;1999.90;999.90;;;28.00;47.80;;;;;;5035023;28;20107;-81
2023/09/12 10:47:20;;;;;;;1999.90;999.90;;;28.20;49.40;;;;;;5038391;28;20025;-81
2023/09/12 10:49:46;;;;;;;1999.90;999.90;;;28.20;48.60;;;;;;5035363;28;20104;-81
2023/09/12 10:52:27;;;;;;;1999.90;999.90;;;28.60;46.00;;;;;;5036422;28;20151;-82
2023/09/12 10:54:53;;;;;;;1999.90;999.90;;;29.20;44.70;;;;;;5036109;28;20049;-82
2023/09/12 10:57:19;;;;;;;1999.90;999.90;;;29.10;42.70;;;;;;5039661;28;20021;-80
2023/09/12 11:00:10;;;;;;;1999.90;999.90;;;29.40;44.30;;;;;;5031097;28;20168;-80
2023/09/12 11:02:40;;;;;;;1999.90;999.90;;;30.10;44.50;;;;;;5035650;28;20499;-79
2023/09/12 11:05:26;;;;;;;1999.90;999.90;;;30.40;41.20;;;;;;5035057;28;20075;-78
2023/09/12 11:07:59;;;;;;;1999.90;999.90;;;30.80;38.60;;;;;;5027921;28;20045;-78
2023/09/12 11:10:26;;;;;;;1999.90;999.90;;;30.30;41.00;;;;;;5036973;28;20040;-78
2023/09/12 11:12:54;;;;;;;1999.90;999.90;;;30.40;41.70;;;;;;5029045;28;20034;-79
2023/09/12 11:15:21;;;;;;;1999.90;999.90;;;31.10;38.50;;;;;;5033461;28;20518;-78
2023/09/12 11:17:49;;;;;;;1999.90;999.90;;;30.90;39.30;;;;;;5066565;28;20033;-78
2023/09/12 11:20:16;;;;;;;1999.90;999.90;;;30.60;37.50;;;;;;5030804;28;20021;-78
2023/09/12 11:22:47;;;;;;;1999.90;999.90;;;30.20;37.70;;;;;;5033518;28;20454;-78
2023/09/12 11:25:22;;;;;;;1999.90;999.90;;;29.90;39.10;;;;;;5040528;28;20527;-78
2023/09/12 11:27:54;;;;;;;1999.90;999.90;;;30.30;41.00;;;;;;5037001;28;20064;-78
2023/09/12 11:30:20;;;;;;;1999.90;999.90;;;30.30;41.20;;;;;;5035723;28;20044;-78
2023/09/12 11:32:50;;;;;;;1999.90;999.90;;;30.70;40.30;;;;;;5037466;28;20495;-78
2023/09/12 11:35:28;;;;;;;1999.90;999.90;;;31.10;39.50;;;;;;5036534;28;20033;-77
2023/09/12 11:37:58;;;;;;;1999.90;999.90;;;31.90;35.00;;;;;;5032660;28;20784;-78
2023/09/12 11:40:26;;;;;;;1999.90;999.90;;;31.90;37.50;;;;;;5032843;28;20037;-79
2023/09/12 11:42:52;;;;;;;1999.90;999.90;;;31.30;35.40;;;;;;5035857;28;20025;-79
2023/09/12 11:45:19;;;;;;;1999.90;999.90;;;31.20;36.20;;;;;;5035177;28;20112;-79
2023/09/12 11:47:46;;;;;;;1999.90;999.90;;;31.60;35.80;;;;;;5035512;28;20029;-78
2023/09/12 11:50:32;;;;;;;1999.90;999.90;;;32.70;33.20;;;;;;5030607;28;20034;-79
2023/09/12 11:53:04;;;;;;;1999.90;999.90;;;33.40;31.70;;;;;;5028827;28;21310;-78
2023/09/12 11:55:45;;;;;;;1999.90;999.90;;;32.80;34.40;;;;;;5033997;28;20111;-78
2023/09/12 11:58:12;;;;;;;1999.90;999.90;;;33.50;32.80;;;;;;5041982;28;20029;-78
2023/09/12 12:00:46;;;;;;;1999.90;999.90;;;33.00;29.50;;;;;;5031320;28;20074;-78